createdAt,value
2022-12-20T00:02:18.552Z,-0.80
2022-12-20T00:04:46.300Z,-0.80
2022-12-20T00:07:13.772Z,-0.80
2022-12-20T00:09:41.335Z,-0.80
2022-12-20T00:12:08.691Z,-0.70
2022-12-20T00:14:36.046Z,-0.70
2022-12-20T00:17:06.011Z,-0.80
2022-12-20T00:19:33.521Z,-0.80
2022-12-20T00:22:03.742Z,-0.70
2022-12-20T00:24:33.052Z,-0.70
2022-12-20T00:27:03.465Z,-0.70
2022-12-20T00:29:35.845Z,-0.70
2022-12-20T00:32:03.218Z,-0.60
2022-12-20T00:34:35.664Z,-0.60
2022-12-20T00:37:04.347Z,-0.60
2022-12-20T00:39:36.620Z,-0.60
2022-12-20T00:42:06.642Z,-0.60
2022-12-20T00:44:37.059Z,-0.60
2022-12-20T00:47:07.171Z,-0.60
2022-12-20T00:49:34.852Z,-0.60
2022-12-20T00:52:05.272Z,-0.60
2022-12-20T00:54:35.699Z,-0.60
2022-12-20T00:57:08.379Z,-0.60
2022-12-20T00:59:40.673Z,-0.50
2022-12-20T01:02:11.258Z,-0.50
2022-12-20T01:04:38.838Z,-0.60
2022-12-20T01:07:09.166Z,-0.60
2022-12-20T01:09:36.513Z,-0.50
2022-12-20T01:12:04.180Z,-0.50
2022-12-20T01:14:34.083Z,-0.50
2022-12-20T01:17:04.336Z,-0.50
2022-12-20T01:19:31.767Z,-0.50
2022-12-20T01:22:02.296Z,-0.40
2022-12-20T01:24:34.053Z,-0.40
2022-12-20T01:27:01.612Z,-0.40
2022-12-20T01:29:31.434Z,-0.40
2022-12-20T01:31:59.033Z,-0.50
2022-12-20T01:34:32.376Z,-0.50
2022-12-20T01:37:02.729Z,-0.50
2022-12-20T01:39:30.282Z,-0.50
2022-12-20T01:41:57.515Z,-0.50
2022-12-20T01:44:26.694Z,-0.50
2022-12-20T01:46:55.091Z,-0.50
2022-12-20T01:49:35.141Z,-0.60
2022-12-20T01:52:20.625Z,-0.60
2022-12-20T01:55:02.533Z,-0.60
2022-12-20T01:57:49.293Z,-0.60
2022-12-20T02:00:17.299Z,-0.60
2022-12-20T02:02:47.037Z,-0.60
2022-12-20T02:05:15.355Z,-0.60
2022-12-20T02:07:46.304Z,-0.60
2022-12-20T02:10:13.445Z,-0.60
2022-12-20T02:12:43.003Z,-0.60
2022-12-20T02:15:29.036Z,-0.60
2022-12-20T02:18:01.731Z,-0.60
2022-12-20T02:21:05.492Z,-0.60
2022-12-20T02:24:12.609Z,-0.60
2022-12-20T02:26:57.681Z,-0.60
2022-12-20T02:29:56.544Z,-0.60
2022-12-20T02:32:37.690Z,-0.60
2022-12-20T02:35:07.926Z,-0.60
2022-12-20T02:37:34.869Z,-0.50
2022-12-20T02:40:04.711Z,-0.50
2022-12-20T02:42:32.955Z,-0.50
2022-12-20T02:45:15.479Z,-0.40
2022-12-20T02:47:45.380Z,-0.40
2022-12-20T02:50:13.058Z,-0.40
2022-12-20T02:52:42.533Z,-0.40
2022-12-20T02:55:09.814Z,-0.40
2022-12-20T02:57:39.700Z,-0.40
2022-12-20T03:00:18.832Z,-0.40
2022-12-20T03:03:05.969Z,-0.40
2022-12-20T03:05:44.475Z,-0.40
2022-12-20T03:08:11.665Z,-0.40
2022-12-20T03:10:38.644Z,-0.40
2022-12-20T03:13:05.654Z,-0.40
2022-12-20T03:15:32.514Z,-0.40
2022-12-20T03:17:59.336Z,-0.40
2022-12-20T03:20:26.178Z,-0.40
2022-12-20T03:22:52.983Z,-0.40
2022-12-20T03:25:20.568Z,-0.30
2022-12-20T03:27:47.793Z,-0.30
2022-12-20T03:30:15.310Z,-0.30
2022-12-20T03:32:42.224Z,-0.30
2022-12-20T03:35:09.483Z,-0.30
2022-12-20T03:37:36.520Z,-0.30
2022-12-20T03:40:03.804Z,-0.30
2022-12-20T03:42:30.723Z,-0.30
2022-12-20T03:44:57.565Z,-0.40
2022-12-20T03:47:24.620Z,-0.30
2022-12-20T03:49:52.103Z,-0.30
2022-12-20T03:55:00.500Z,-0.30
2022-12-20T03:57:27.615Z,-0.20
2022-12-20T03:59:54.602Z,-0.30
2022-12-20T04:02:22.739Z,-0.20
2022-12-20T04:04:50.451Z,-0.20
2022-12-20T04:07:17.321Z,-0.30
2022-12-20T04:09:44.168Z,-0.30
2022-12-20T04:12:10.983Z,-0.30
2022-12-20T04:14:37.839Z,-0.30
2022-12-20T04:17:05.096Z,-0.30
2022-12-20T04:19:31.999Z,-0.30
2022-12-20T04:22:04.758Z,-0.30
2022-12-20T04:24:32.732Z,-0.40
2022-12-20T04:26:59.567Z,-0.40
2022-12-20T04:29:26.388Z,-0.40
2022-12-20T04:31:53.245Z,-0.40
2022-12-20T04:34:20.169Z,-0.40
2022-12-20T04:36:47.112Z,-0.30
2022-12-20T04:39:14.092Z,-0.40
2022-12-20T04:41:40.948Z,-0.50
2022-12-20T04:44:07.903Z,-0.50
2022-12-20T04:46:34.901Z,-0.50
2022-12-20T04:49:01.801Z,-0.60
2022-12-20T04:51:29.147Z,-0.60
2022-12-20T04:53:56.695Z,-0.60
2022-12-20T04:56:26.283Z,-0.50
2022-12-20T04:58:54.500Z,-0.50
2022-12-20T05:01:22.376Z,-0.50
2022-12-20T05:03:49.702Z,-0.50
2022-12-20T05:06:17.224Z,-0.60
2022-12-20T05:08:44.240Z,-0.60
2022-12-20T05:11:11.183Z,-0.60
2022-12-20T05:13:38.007Z,-0.60
2022-12-20T05:16:05.092Z,-0.70
2022-12-20T05:18:32.595Z,-0.60
2022-12-20T05:21:19.293Z,-0.60
2022-12-20T05:24:05.373Z,-0.60
2022-12-20T05:26:34.619Z,-0.60
2022-12-20T05:29:01.548Z,-0.60
2022-12-20T05:31:28.711Z,-0.50
2022-12-20T05:33:55.581Z,-0.50
2022-12-20T05:36:22.524Z,-0.50
2022-12-20T05:38:49.990Z,-0.40
2022-12-20T05:41:16.838Z,-0.30
2022-12-20T05:43:43.644Z,-0.20
2022-12-20T05:46:10.894Z,-0.10
2022-12-20T05:48:37.979Z,-0.20
2022-12-20T05:51:05.183Z,-0.20
2022-12-20T05:53:32.088Z,-0.30
2022-12-20T05:55:59.497Z,-0.30
2022-12-20T05:58:26.309Z,-0.40
2022-12-20T06:00:53.583Z,-0.40
2022-12-20T06:03:20.523Z,-0.40
2022-12-20T06:05:47.500Z,-0.40
2022-12-20T06:08:14.602Z,-0.40
2022-12-20T06:10:42.218Z,-0.40
2022-12-20T06:13:10.136Z,-0.40
2022-12-20T06:15:37.520Z,-0.40
2022-12-20T06:18:04.611Z,-0.40
2022-12-20T06:20:31.546Z,-0.40
2022-12-20T06:22:58.468Z,-0.40
2022-12-20T06:25:25.692Z,-0.40
2022-12-20T06:27:52.579Z,-0.40
2022-12-20T06:30:20.078Z,-0.40
2022-12-20T06:32:47.196Z,-0.30
2022-12-20T06:35:14.882Z,-0.30
2022-12-20T06:37:42.228Z,-0.30
2022-12-20T06:40:12.555Z,-0.30
2022-12-20T06:42:39.597Z,-0.30
2022-12-20T06:45:07.071Z,-0.40
2022-12-20T06:47:33.938Z,-0.40
2022-12-20T06:50:00.784Z,-0.40
2022-12-20T06:52:27.654Z,-0.50
2022-12-20T06:54:54.465Z,-0.40
2022-12-20T06:57:21.445Z,-0.40
2022-12-20T06:59:48.391Z,-0.40
2022-12-20T07:02:15.422Z,-0.30
2022-12-20T07:04:42.498Z,-0.30
2022-12-20T07:07:09.513Z,-0.20
2022-12-20T07:09:37.946Z,-0.20
2022-12-20T07:12:05.402Z,-0.20
2022-12-20T07:14:32.247Z,-0.10
2022-12-20T07:16:59.198Z,-0.10
2022-12-20T07:19:26.315Z,0.00
2022-12-20T07:21:53.152Z,0.00
2022-12-20T07:24:20.071Z,0.10
2022-12-20T07:26:46.951Z,0.10
2022-12-20T07:29:15.959Z,0.10
2022-12-20T07:31:43.155Z,0.20
2022-12-20T07:34:11.332Z,0.20
2022-12-20T07:36:38.506Z,0.20
2022-12-20T07:39:05.427Z,0.20
2022-12-20T07:41:32.274Z,0.30
2022-12-20T07:43:59.636Z,0.40
2022-12-20T07:46:27.220Z,0.40
2022-12-20T07:48:55.273Z,0.40
2022-12-20T07:51:26.330Z,0.50
2022-12-20T07:53:59.174Z,0.50
2022-12-20T07:56:27.239Z,0.60
2022-12-20T07:58:58.530Z,0.60
2022-12-20T08:01:30.645Z,0.70
2022-12-20T08:04:02.734Z,0.70
2022-12-20T08:06:30.270Z,0.70
2022-12-20T08:09:00.597Z,0.80
2022-12-20T08:11:29.560Z,0.80
2022-12-20T08:13:58.393Z,0.90
2022-12-20T08:16:25.976Z,0.90
2022-12-20T08:18:52.891Z,1.00
2022-12-20T08:21:19.815Z,1.00
2022-12-20T08:23:46.627Z,1.00
2022-12-20T08:26:13.463Z,1.00
2022-12-20T08:28:40.481Z,1.00
2022-12-20T08:31:09.395Z,1.00
2022-12-20T08:33:37.955Z,1.00
2022-12-20T08:36:11.657Z,1.00
2022-12-20T08:38:39.210Z,1.00
2022-12-20T08:41:15.982Z,1.20
2022-12-20T08:43:43.576Z,1.20
2022-12-20T08:46:12.223Z,1.30
2022-12-20T08:48:39.469Z,1.30
2022-12-20T08:51:10.849Z,1.30
2022-12-20T08:53:38.401Z,1.40
2022-12-20T08:56:17.121Z,1.40
2022-12-20T08:58:45.084Z,1.50
2022-12-20T09:01:15.194Z,1.60
2022-12-20T09:03:42.715Z,1.60
2022-12-20T09:06:13.202Z,1.70
2022-12-20T09:08:40.788Z,1.70
2022-12-20T09:11:17.034Z,1.80
2022-12-20T09:13:46.371Z,1.80
2022-12-20T09:16:15.466Z,1.90
2022-12-20T09:18:42.754Z,1.90
2022-12-20T09:21:11.555Z,2.00
2022-12-20T09:23:40.025Z,2.00
2022-12-20T09:26:10.504Z,2.00
2022-12-20T09:28:37.328Z,2.10
2022-12-20T09:31:06.668Z,2.20
2022-12-20T09:33:34.615Z,2.30
2022-12-20T09:36:02.296Z,2.30
2022-12-20T09:38:31.150Z,2.40
2022-12-20T09:41:06.892Z,2.40
2022-12-20T09:43:34.789Z,2.50
2022-12-20T09:46:04.051Z,2.50
2022-12-20T09:48:33.737Z,2.60
2022-12-20T09:51:12.532Z,2.60
2022-12-20T09:59:06.143Z,2.60
2022-12-20T10:01:39.472Z,2.60
2022-12-20T10:04:23.745Z,2.60
2022-12-20T10:07:05.851Z,2.60
2022-12-20T10:10:10.219Z,2.70
2022-12-20T10:13:00.351Z,2.70
2022-12-20T10:15:36.901Z,2.70
2022-12-20T10:18:28.768Z,2.80
2022-12-20T10:21:03.667Z,2.80
2022-12-20T10:23:36.259Z,2.90
2022-12-20T10:26:10.237Z,2.90
2022-12-20T10:28:37.598Z,3.00
2022-12-20T10:31:12.752Z,3.00
2022-12-20T10:33:40.896Z,3.10
2022-12-20T10:36:26.303Z,3.20
2022-12-20T10:39:05.752Z,3.10
2022-12-20T10:41:42.832Z,3.20
2022-12-20T10:44:39.241Z,3.20
2022-12-20T10:47:41.743Z,3.20
2022-12-20T10:50:14.807Z,3.20
2022-12-20T10:52:42.597Z,3.30
2022-12-20T10:55:36.899Z,3.30
2022-12-20T10:58:35.284Z,3.40
2022-12-20T11:01:06.394Z,3.40
2022-12-20T11:03:33.418Z,3.40
2022-12-20T11:06:04.537Z,3.50
2022-12-20T11:08:39.110Z,3.50
2022-12-20T11:11:13.037Z,3.60
2022-12-20T11:13:41.410Z,3.70
2022-12-20T11:16:25.819Z,3.70
2022-12-20T11:19:06.117Z,3.70
2022-12-20T11:21:50.490Z,3.70
2022-12-20T11:24:49.494Z,3.80
2022-12-20T11:27:22.679Z,3.80
2022-12-20T11:29:56.656Z,3.80
2022-12-20T11:32:35.565Z,3.80
2022-12-20T11:35:19.627Z,3.80
2022-12-20T11:38:09.532Z,3.80
2022-12-20T11:40:39.342Z,3.80
2022-12-20T11:43:12.138Z,3.80
2022-12-20T11:45:54.063Z,3.70
2022-12-20T11:48:55.514Z,3.70
2022-12-20T11:51:43.714Z,3.70
2022-12-20T11:54:29.298Z,3.70
2022-12-20T11:57:13.683Z,3.70
2022-12-20T11:59:44.916Z,3.70
2022-12-20T12:02:22.367Z,3.80
2022-12-20T12:05:18.773Z,3.80
2022-12-20T12:07:52.020Z,3.70
2022-12-20T12:10:36.531Z,3.70
2022-12-20T12:13:23.494Z,3.70
2022-12-20T12:16:03.807Z,3.70
2022-12-20T12:18:35.995Z,3.70
2022-12-20T12:21:32.275Z,3.70
2022-12-20T12:24:27.153Z,3.70
2022-12-20T12:26:54.148Z,3.70
2022-12-20T12:29:22.272Z,3.60
2022-12-20T12:32:30.786Z,3.60
2022-12-20T12:35:24.113Z,3.60
2022-12-20T12:38:19.827Z,3.50
2022-12-20T12:40:53.099Z,3.50
2022-12-20T12:43:38.724Z,3.50
2022-12-20T12:46:24.675Z,3.60
2022-12-20T12:48:54.805Z,3.60
2022-12-20T12:51:38.841Z,3.60
2022-12-20T12:54:26.053Z,3.70
2022-12-20T12:56:55.690Z,3.70
2022-12-20T12:59:27.567Z,3.60
2022-12-20T13:01:56.064Z,3.60
2022-12-20T13:04:29.092Z,3.60
2022-12-20T13:07:00.014Z,3.60
2022-12-20T13:09:27.141Z,3.60
2022-12-20T13:12:01.298Z,3.60
2022-12-20T13:14:29.154Z,3.60
2022-12-20T13:17:13.825Z,3.60
2022-12-20T13:19:54.790Z,3.60
2022-12-20T13:22:26.058Z,3.60
2022-12-20T13:24:58.737Z,3.60
2022-12-20T13:27:42.177Z,3.50
2022-12-20T13:30:14.794Z,3.40
2022-12-20T13:32:48.043Z,3.40
2022-12-20T13:35:28.050Z,3.40
2022-12-20T13:38:07.089Z,3.40
2022-12-20T13:40:47.112Z,3.40
2022-12-20T13:43:20.220Z,3.50
2022-12-20T13:45:48.507Z,3.60
2022-12-20T13:48:25.527Z,3.70
2022-12-20T13:50:55.230Z,3.70
2022-12-20T13:53:24.327Z,3.70
2022-12-20T13:55:51.699Z,3.70
2022-12-20T13:58:23.933Z,3.70
2022-12-20T14:00:51.033Z,3.60
2022-12-20T14:03:27.677Z,3.60
2022-12-20T14:06:01.970Z,3.50
2022-12-20T14:08:34.469Z,3.50
2022-12-20T14:11:11.364Z,3.50
2022-12-20T14:13:38.671Z,3.40
2022-12-20T14:16:16.202Z,3.30
2022-12-20T14:18:51.726Z,3.30
2022-12-20T14:21:19.328Z,3.20
2022-12-20T14:23:50.718Z,3.10
2022-12-20T14:26:38.720Z,3.00
2022-12-20T14:29:12.517Z,2.90
2022-12-20T14:31:42.824Z,2.90
2022-12-20T14:34:12.397Z,2.90
2022-12-20T14:36:47.742Z,2.80
2022-12-20T14:39:32.456Z,2.80
2022-12-20T14:42:09.896Z,2.80
2022-12-20T14:44:36.761Z,2.70
2022-12-20T14:47:27.485Z,2.70
2022-12-20T14:50:04.495Z,2.60
2022-12-20T14:52:39.539Z,2.60
2022-12-20T14:55:14.011Z,2.60
2022-12-20T14:57:52.076Z,2.50
2022-12-20T15:00:18.881Z,2.50
2022-12-20T15:02:46.006Z,2.40
2022-12-20T15:05:38.838Z,2.40
2022-12-20T15:08:11.929Z,2.30
2022-12-20T15:10:39.090Z,2.30
2022-12-20T15:13:12.475Z,2.20
2022-12-20T15:15:39.717Z,2.20
2022-12-20T15:18:25.015Z,2.20
2022-12-20T15:21:27.023Z,2.10
2022-12-20T15:23:55.812Z,2.10
2022-12-20T15:26:25.307Z,2.10
2022-12-20T15:28:52.272Z,2.00
2022-12-20T15:31:25.992Z,2.00
2022-12-20T15:33:58.981Z,1.90
2022-12-20T15:36:28.412Z,1.90
2022-12-20T15:39:12.505Z,1.90
2022-12-20T15:41:43.321Z,1.90
2022-12-20T15:44:37.268Z,1.90
2022-12-20T15:47:04.419Z,1.80
2022-12-20T15:49:32.527Z,1.80
2022-12-20T15:51:59.851Z,1.80
2022-12-20T15:56:56.487Z,1.70
2022-12-20T16:02:25.935Z,1.70
2022-12-20T16:04:53.614Z,1.70
2022-12-20T16:07:20.716Z,1.70
2022-12-20T16:09:47.756Z,1.60
2022-12-20T16:12:35.295Z,1.60
2022-12-20T16:15:02.184Z,1.60
2022-12-20T16:17:29.085Z,1.70
2022-12-20T16:19:55.920Z,1.70
2022-12-20T16:22:24.389Z,1.60
2022-12-20T16:24:51.932Z,1.70
2022-12-20T16:27:19.327Z,1.70
2022-12-20T16:29:46.249Z,1.70
2022-12-20T16:32:18.124Z,1.60
2022-12-20T16:34:45.623Z,1.60
2022-12-20T16:37:12.682Z,1.60
2022-12-20T16:39:39.994Z,1.60
2022-12-20T16:42:16.646Z,1.60
2022-12-20T16:44:45.315Z,1.50
2022-12-20T16:47:13.122Z,1.60
2022-12-20T16:49:44.498Z,1.60
2022-12-20T16:52:18.461Z,1.70
2022-12-20T16:54:45.383Z,1.60
2022-12-20T16:57:12.330Z,1.70
2022-12-20T16:59:39.130Z,1.70
2022-12-20T17:02:21.835Z,1.70
2022-12-20T17:04:48.845Z,1.70
2022-12-20T17:07:16.350Z,1.70
2022-12-20T17:09:43.214Z,1.80
2022-12-20T17:12:16.080Z,1.80
2022-12-20T17:14:43.129Z,1.90
2022-12-20T17:17:09.962Z,2.00
2022-12-20T17:19:37.110Z,2.10
2022-12-20T17:24:48.469Z,2.10
2022-12-20T17:27:15.270Z,2.10
2022-12-20T17:29:42.082Z,2.00
2022-12-20T17:32:23.516Z,2.10
2022-12-20T17:34:50.723Z,2.00
2022-12-20T17:37:18.142Z,2.00
2022-12-20T17:39:45.099Z,2.00
2022-12-20T17:42:15.468Z,1.90
2022-12-20T17:44:42.810Z,2.00
2022-12-20T17:47:09.793Z,2.00
2022-12-20T17:49:37.635Z,2.00
2022-12-20T17:52:04.670Z,1.90
2022-12-20T17:54:38.945Z,1.90
2022-12-20T17:57:12.220Z,1.90
2022-12-20T17:59:39.075Z,1.90
2022-12-20T18:02:21.814Z,1.80
2022-12-20T18:04:49.128Z,1.80
2022-12-20T18:07:15.971Z,1.90
2022-12-20T18:09:42.786Z,2.00
2022-12-20T18:12:11.069Z,2.00
2022-12-20T18:14:37.980Z,2.00
2022-12-20T18:17:04.906Z,2.00
2022-12-20T18:19:32.029Z,2.00
2022-12-20T18:22:00.070Z,2.00
2022-12-20T18:24:27.504Z,2.00
2022-12-20T18:26:54.360Z,1.90
2022-12-20T18:29:21.520Z,1.90
2022-12-20T18:31:48.423Z,1.90
2022-12-20T18:34:15.355Z,1.90
2022-12-20T18:36:42.280Z,2.10
2022-12-20T18:39:11.949Z,2.10
2022-12-20T18:41:38.771Z,2.10
2022-12-20T18:44:07.185Z,2.00
2022-12-20T18:46:34.600Z,2.00
2022-12-20T18:49:02.795Z,2.00
2022-12-20T18:51:32.987Z,2.00
2022-12-20T18:54:00.693Z,1.90
2022-12-20T18:56:30.948Z,2.00
2022-12-20T18:59:04.474Z,2.00
2022-12-20T19:01:35.809Z,2.00
2022-12-20T19:04:04.507Z,2.00
2022-12-20T19:06:31.976Z,2.00
2022-12-20T19:09:03.727Z,2.10
2022-12-20T19:11:30.666Z,2.10
2022-12-20T19:13:57.560Z,2.10
2022-12-20T19:16:31.956Z,2.20
2022-12-20T19:19:00.792Z,2.20
2022-12-20T19:21:30.340Z,2.20
2022-12-20T19:23:59.319Z,2.20
2022-12-20T19:26:27.820Z,2.20
2022-12-20T19:28:55.330Z,2.20
2022-12-20T19:31:27.620Z,2.20
2022-12-20T19:34:06.644Z,2.20
2022-12-20T19:36:45.487Z,2.20
2022-12-20T19:39:15.545Z,2.20
2022-12-20T19:41:42.659Z,2.20
2022-12-20T19:44:09.544Z,2.20
2022-12-20T19:46:36.546Z,2.10
2022-12-20T19:49:04.280Z,2.10
2022-12-20T19:51:31.967Z,2.00
2022-12-20T19:53:59.549Z,2.10
2022-12-20T19:56:32.705Z,2.00
2022-12-20T19:59:00.010Z,2.00
2022-12-20T20:01:27.819Z,1.90
2022-12-20T20:03:57.922Z,1.90
2022-12-20T20:06:25.698Z,1.90
2022-12-20T20:08:53.550Z,1.80
2022-12-20T20:11:21.182Z,1.80
2022-12-20T20:13:48.245Z,1.70
2022-12-20T20:16:20.266Z,1.80
2022-12-20T20:18:49.299Z,1.70
2022-12-20T20:21:19.153Z,1.80
2022-12-20T20:23:46.004Z,1.80
2022-12-20T20:26:19.239Z,1.70
2022-12-20T20:28:46.560Z,1.70
2022-12-20T20:31:15.691Z,1.70
2022-12-20T20:33:43.069Z,1.70
2022-12-20T20:36:12.834Z,1.70
2022-12-20T20:38:40.117Z,1.80
2022-12-20T20:41:06.971Z,1.70
2022-12-20T20:43:38.047Z,1.80
2022-12-20T20:46:07.392Z,1.80
2022-12-20T20:48:34.761Z,1.70
2022-12-20T20:51:01.754Z,1.70
2022-12-20T20:53:33.504Z,1.60
2022-12-20T20:56:05.611Z,1.60
2022-12-20T20:58:33.372Z,1.60
2022-12-20T21:01:01.944Z,1.60
2022-12-20T21:03:30.650Z,1.60
2022-12-20T21:08:45.088Z,1.60
2022-12-20T21:11:12.114Z,1.60
2022-12-20T21:13:39.113Z,1.60
2022-12-20T21:16:16.122Z,1.60
2022-12-20T21:18:43.253Z,1.60
2022-12-20T21:21:12.566Z,1.60
2022-12-20T21:23:43.395Z,1.70
2022-12-20T21:26:10.229Z,1.60
2022-12-20T21:28:37.040Z,1.60
2022-12-20T21:31:11.887Z,1.60
2022-12-20T21:33:39.174Z,1.70
2022-12-20T21:36:11.531Z,1.70
2022-12-20T21:38:38.362Z,1.70
2022-12-20T21:41:13.301Z,1.70
2022-12-20T21:43:40.373Z,1.70
2022-12-20T21:46:11.468Z,1.70
2022-12-20T21:48:43.567Z,1.70
2022-12-20T21:51:20.284Z,1.70
2022-12-20T21:53:48.572Z,1.60
2022-12-20T21:56:15.943Z,1.60
2022-12-20T21:58:43.885Z,1.60
2022-12-20T22:01:11.912Z,1.60
2022-12-20T22:03:38.951Z,1.60
2022-12-20T22:06:06.556Z,1.60
2022-12-20T22:08:34.061Z,1.60
2022-12-20T22:11:06.759Z,1.60
2022-12-20T22:13:40.641Z,1.60
2022-12-20T22:16:12.616Z,1.70
2022-12-20T22:18:40.585Z,1.70
2022-12-20T22:21:10.020Z,1.70
2022-12-20T22:23:37.837Z,1.70
2022-12-20T22:26:09.884Z,1.80
2022-12-20T22:28:37.579Z,1.80
2022-12-20T22:31:09.564Z,1.80
2022-12-20T22:33:37.755Z,1.80
2022-12-20T22:36:05.537Z,1.80
2022-12-20T22:38:32.638Z,1.80
2022-12-20T22:41:22.371Z,1.70
2022-12-20T22:43:49.884Z,1.80
2022-12-20T22:46:18.138Z,1.80
2022-12-20T22:48:46.209Z,1.80
2022-12-20T22:51:16.328Z,1.80
2022-12-20T22:53:43.823Z,1.80
2022-12-20T22:56:11.544Z,1.80
2022-12-20T22:58:39.543Z,1.80
2022-12-20T23:01:08.735Z,1.80
2022-12-20T23:03:37.040Z,1.80
2022-12-20T23:06:05.744Z,1.90
2022-12-20T23:08:36.018Z,1.90
2022-12-20T23:11:22.809Z,1.90
2022-12-20T23:14:08.347Z,2.00
2022-12-20T23:16:37.813Z,2.00
2022-12-20T23:19:04.756Z,2.10
2022-12-20T23:21:50.023Z,2.10
2022-12-20T23:24:16.951Z,2.20
2022-12-20T23:26:44.451Z,2.30
2022-12-20T23:29:11.937Z,2.30
2022-12-20T23:31:39.152Z,2.30
2022-12-20T23:34:06.589Z,2.30
2022-12-20T23:36:33.412Z,2.20
2022-12-20T23:39:00.690Z,2.30
2022-12-20T23:41:28.190Z,2.30
2022-12-20T23:43:55.199Z,2.30
2022-12-20T23:46:22.379Z,2.30
2022-12-20T23:48:51.184Z,2.20
2022-12-20T23:51:18.444Z,2.20
2022-12-20T23:53:45.417Z,2.20
2022-12-20T23:56:18.518Z,2.20
2022-12-20T23:58:47.309Z,2.10
